createdAt,value
2022-10-29T00:01:59.795Z,29.66
2022-10-29T00:04:30.181Z,29.69
2022-10-29T00:07:00.393Z,29.62
2022-10-29T00:09:30.699Z,29.65
2022-10-29T00:12:00.867Z,29.67
2022-10-29T00:14:30.961Z,29.67
2022-10-29T00:17:01.228Z,29.69
2022-10-29T00:19:31.445Z,29.75
2022-10-29T00:22:01.608Z,29.74
2022-10-29T00:24:31.820Z,29.55
2022-10-29T00:27:02.081Z,29.40
2022-10-29T00:29:33.206Z,29.50
2022-10-29T00:32:03.543Z,29.59
2022-10-29T00:34:33.754Z,29.64
2022-10-29T00:39:43.163Z,29.71
2022-10-29T00:42:19.816Z,29.70
2022-10-29T00:44:50.085Z,29.66
2022-10-29T00:47:27.931Z,29.70
2022-10-29T00:50:09.704Z,29.71
2022-10-29T00:52:45.744Z,29.82
2022-10-29T00:55:18.339Z,29.81
2022-10-29T00:57:54.238Z,29.84
2022-10-29T01:00:25.193Z,29.89
2022-10-29T01:02:55.552Z,29.90
2022-10-29T01:05:28.190Z,29.93
2022-10-29T01:07:58.363Z,29.96
2022-10-29T01:10:43.428Z,29.97
2022-10-29T01:13:31.893Z,30.01
2022-10-29T01:16:17.519Z,30.02
2022-10-29T01:18:57.354Z,30.05
2022-10-29T01:21:53.647Z,30.07
2022-10-29T01:24:32.391Z,30.08
2022-10-29T01:27:21.025Z,30.10
2022-10-29T01:30:00.072Z,30.12
2022-10-29T01:32:58.397Z,30.12
2022-10-29T01:35:36.531Z,30.09
2022-10-29T01:38:21.938Z,30.08
2022-10-29T01:41:10.854Z,30.14
2022-10-29T01:43:56.108Z,30.15
2022-10-29T01:46:38.007Z,30.15
2022-10-29T01:49:13.587Z,30.16
2022-10-29T01:51:46.929Z,30.18
2022-10-29T01:54:17.115Z,30.18
2022-10-29T01:56:55.543Z,30.20
2022-10-29T01:59:36.114Z,30.21
2022-10-29T02:02:38.857Z,30.23
2022-10-29T02:05:18.044Z,30.24
2022-10-29T02:07:54.901Z,30.22
2022-10-29T02:10:41.621Z,30.24
2022-10-29T02:13:14.817Z,30.28
2022-10-29T02:15:56.325Z,30.27
2022-10-29T02:18:26.894Z,30.28
2022-10-29T02:20:57.140Z,30.31
2022-10-29T02:23:27.275Z,30.30
2022-10-29T02:25:57.393Z,30.31
2022-10-29T02:28:27.698Z,30.33
2022-10-29T02:30:57.703Z,30.33
2022-10-29T02:33:27.977Z,30.32
2022-10-29T02:35:58.111Z,30.33
2022-10-29T02:38:28.173Z,30.33
2022-10-29T02:40:58.183Z,30.34
2022-10-29T02:43:28.261Z,30.35
2022-10-29T02:46:22.712Z,30.35
2022-10-29T02:48:53.397Z,30.36
2022-10-29T02:51:23.696Z,30.36
2022-10-29T02:53:53.787Z,30.38
2022-10-29T02:56:23.849Z,30.38
2022-10-29T02:58:54.432Z,30.38
2022-10-29T03:01:24.713Z,30.37
2022-10-29T03:03:55.027Z,30.39
2022-10-29T03:06:25.212Z,30.44
2022-10-29T03:08:55.391Z,30.41
2022-10-29T03:11:25.520Z,30.43
2022-10-29T03:13:55.521Z,30.43
2022-10-29T03:16:25.539Z,30.47
2022-10-29T03:18:55.762Z,30.48
2022-10-29T03:21:25.949Z,30.47
2022-10-29T03:23:56.282Z,30.50
2022-10-29T03:26:26.482Z,30.51
2022-10-29T03:28:58.677Z,30.52
2022-10-29T03:31:28.893Z,30.51
2022-10-29T03:33:59.193Z,30.51
2022-10-29T03:36:29.847Z,30.51
2022-10-29T03:39:01.089Z,30.52
2022-10-29T03:41:31.273Z,30.52
2022-10-29T03:44:01.500Z,30.53
2022-10-29T03:46:31.787Z,30.54
2022-10-29T03:49:01.979Z,30.56
2022-10-29T03:51:32.150Z,30.55
2022-10-29T03:54:02.370Z,30.57
2022-10-29T03:56:33.335Z,30.56
2022-10-29T03:59:03.625Z,30.58
2022-10-29T04:01:34.052Z,30.59
2022-10-29T04:04:04.335Z,30.60
2022-10-29T04:06:34.540Z,30.60
2022-10-29T04:09:04.674Z,30.60
2022-10-29T04:11:35.060Z,30.61
2022-10-29T04:14:05.390Z,30.62
2022-10-29T04:16:35.587Z,30.64
2022-10-29T04:19:06.272Z,30.66
2022-10-29T04:28:28.941Z,30.66
2022-10-29T04:30:07.663Z,30.67
2022-10-29T04:32:37.916Z,30.68
2022-10-29T04:35:08.722Z,30.71
2022-10-29T04:37:38.963Z,30.71
2022-10-29T04:40:09.692Z,30.72
2022-10-29T04:42:40.887Z,30.73
2022-10-29T04:45:11.855Z,30.74
2022-10-29T04:47:42.032Z,30.73
2022-10-29T04:50:12.424Z,30.76
2022-10-29T04:52:42.657Z,30.74
2022-10-29T04:55:12.873Z,30.74
2022-10-29T04:57:43.468Z,30.73
2022-10-29T05:00:17.878Z,30.75
2022-10-29T05:02:54.469Z,30.77
2022-10-29T05:05:24.952Z,30.77
2022-10-29T05:08:06.176Z,30.77
2022-10-29T05:10:38.873Z,30.77
2022-10-29T05:13:14.044Z,30.79
2022-10-29T05:15:47.906Z,30.81
2022-10-29T05:18:20.924Z,30.80
2022-10-29T05:20:51.135Z,30.81
2022-10-29T05:23:21.475Z,30.79
2022-10-29T05:25:53.842Z,30.79
2022-10-29T05:28:25.652Z,30.83
2022-10-29T05:30:56.618Z,30.83
2022-10-29T05:33:27.569Z,30.81
2022-10-29T05:35:57.829Z,30.83
2022-10-29T05:38:28.321Z,30.82
2022-10-29T05:41:01.194Z,30.82
2022-10-29T05:43:31.472Z,30.84
2022-10-29T05:46:01.502Z,30.82
2022-10-29T05:48:31.529Z,30.83
2022-10-29T05:51:01.616Z,30.82
2022-10-29T05:53:31.655Z,30.82
2022-10-29T05:56:01.868Z,30.86
2022-10-29T05:58:32.180Z,30.87
2022-10-29T06:01:02.457Z,30.87
2022-10-29T06:03:32.671Z,30.85
2022-10-29T06:06:03.046Z,30.88
2022-10-29T06:08:33.411Z,30.85
2022-10-29T06:11:05.160Z,30.89
2022-10-29T06:13:35.436Z,30.87
2022-10-29T06:16:05.716Z,30.88
2022-10-29T06:18:35.991Z,30.87
2022-10-29T06:21:06.320Z,30.87
2022-10-29T06:23:36.489Z,30.88
2022-10-29T06:26:06.812Z,30.87
2022-10-29T06:28:37.142Z,30.86
2022-10-29T06:31:07.495Z,30.87
2022-10-29T06:33:37.749Z,30.87
2022-10-29T06:36:08.490Z,30.86
2022-10-29T06:38:38.893Z,30.87
2022-10-29T06:41:09.657Z,30.88
2022-10-29T06:43:39.859Z,30.89
2022-10-29T06:46:10.410Z,30.90
2022-10-29T06:48:40.655Z,30.89
2022-10-29T06:51:10.898Z,30.91
2022-10-29T06:53:41.188Z,30.89
2022-10-29T06:56:11.476Z,30.91
2022-10-29T06:58:41.719Z,30.91
2022-10-29T07:01:11.992Z,30.93
2022-10-29T07:03:42.220Z,30.93
2022-10-29T07:06:12.468Z,30.90
2022-10-29T07:08:42.663Z,30.93
2022-10-29T07:11:12.932Z,30.92
2022-10-29T07:13:43.208Z,30.93
2022-10-29T07:16:13.519Z,30.91
2022-10-29T07:18:43.713Z,30.93
2022-10-29T07:21:14.987Z,30.93
2022-10-29T07:23:44.825Z,30.91
2022-10-29T07:26:14.882Z,30.91
2022-10-29T07:28:45.105Z,30.93
2022-10-29T07:31:15.325Z,30.92
2022-10-29T07:33:45.525Z,30.93
2022-10-29T07:36:15.714Z,30.92
2022-10-29T07:38:45.924Z,30.95
2022-10-29T07:41:16.439Z,30.95
2022-10-29T07:43:46.697Z,30.96
2022-10-29T07:46:16.955Z,30.96
2022-10-29T07:48:47.156Z,30.95
2022-10-29T07:51:17.369Z,30.96
2022-10-29T07:53:47.570Z,30.95
2022-10-29T07:56:17.628Z,30.95
2022-10-29T07:58:47.687Z,30.95
2022-10-29T08:01:17.789Z,30.98
2022-10-29T08:03:47.901Z,30.94
2022-10-29T08:06:17.943Z,30.94
2022-10-29T08:08:48.087Z,30.97
2022-10-29T08:11:18.155Z,30.96
2022-10-29T08:13:48.195Z,30.97
2022-10-29T08:16:18.318Z,30.99
2022-10-29T08:18:48.539Z,30.99
2022-10-29T08:21:20.028Z,30.98
2022-10-29T08:23:49.839Z,31.01
2022-10-29T08:26:19.947Z,30.98
2022-10-29T08:28:50.237Z,30.99
2022-10-29T08:31:21.670Z,30.97
2022-10-29T08:33:51.848Z,30.96
2022-10-29T08:36:22.068Z,30.96
2022-10-29T08:38:52.671Z,30.99
2022-10-29T08:41:36.443Z,30.97
2022-10-29T08:44:12.097Z,30.97
2022-10-29T08:46:54.792Z,30.97
2022-10-29T08:49:33.754Z,30.96
2022-10-29T08:52:26.617Z,30.98
2022-10-29T08:55:22.383Z,30.96
2022-10-29T08:57:58.165Z,30.95
2022-10-29T09:00:35.321Z,30.96
2022-10-29T09:03:05.577Z,30.97
2022-10-29T09:06:12.035Z,30.99
2022-10-29T09:08:42.194Z,30.98
2022-10-29T09:11:42.318Z,30.99
2022-10-29T09:14:43.522Z,30.98
2022-10-29T09:17:57.714Z,30.98
2022-10-29T09:20:55.060Z,30.99
2022-10-29T09:23:46.386Z,31.01
2022-10-29T09:26:36.750Z,30.96
2022-10-29T09:29:13.869Z,31.00
2022-10-29T09:31:50.368Z,30.96
2022-10-29T09:34:40.461Z,30.95
2022-10-29T09:37:18.906Z,30.94
2022-10-29T09:39:50.426Z,30.96
2022-10-29T09:42:33.991Z,30.94
2022-10-29T09:45:11.535Z,30.97
2022-10-29T09:47:53.174Z,30.99
2022-10-29T09:50:35.297Z,30.99
2022-10-29T09:53:05.757Z,30.97
2022-10-29T09:55:47.196Z,31.01
2022-10-29T09:58:25.266Z,31.00
2022-10-29T10:00:59.350Z,31.00
2022-10-29T10:03:36.728Z,31.00
2022-10-29T10:06:08.726Z,31.01
2022-10-29T10:09:04.040Z,31.00
2022-10-29T10:11:44.728Z,31.02
2022-10-29T10:14:24.359Z,30.99
2022-10-29T10:17:05.258Z,30.97
2022-10-29T10:19:36.010Z,30.95
2022-10-29T10:22:10.278Z,30.97
2022-10-29T10:24:43.392Z,30.95
2022-10-29T10:27:36.486Z,30.96
2022-10-29T10:30:06.641Z,30.97
2022-10-29T10:32:36.835Z,30.97
2022-10-29T10:35:33.783Z,30.99
2022-10-29T10:38:11.768Z,31.00
2022-10-29T10:40:43.919Z,30.98
2022-10-29T10:43:25.385Z,30.98
2022-10-29T10:45:59.711Z,31.01
2022-10-29T10:48:33.729Z,30.98
2022-10-29T10:51:27.247Z,30.99
2022-10-29T10:53:57.727Z,30.96
2022-10-29T10:56:28.013Z,30.97
2022-10-29T10:59:08.158Z,30.94
2022-10-29T11:01:47.316Z,30.97
2022-10-29T11:04:32.307Z,30.97
2022-10-29T11:07:07.837Z,30.97
2022-10-29T11:09:46.323Z,30.97
2022-10-29T11:12:30.360Z,30.98
2022-10-29T11:15:14.533Z,30.98
2022-10-29T11:18:27.927Z,30.98
2022-10-29T11:21:12.329Z,30.96
2022-10-29T11:23:57.117Z,30.96
2022-10-29T11:26:58.683Z,30.96
2022-10-29T11:29:53.025Z,30.98
2022-10-29T11:32:53.611Z,31.02
2022-10-29T11:35:35.426Z,31.02
2022-10-29T11:38:15.623Z,31.02
2022-10-29T11:41:08.014Z,31.02
2022-10-29T11:43:38.228Z,30.98
2022-10-29T11:46:26.677Z,31.02
2022-10-29T11:49:30.302Z,31.02
2022-10-29T11:52:17.530Z,31.02
2022-10-29T11:55:02.264Z,31.03
2022-10-29T11:57:57.441Z,31.02
2022-10-29T12:00:34.638Z,31.00
2022-10-29T12:03:33.399Z,31.02
2022-10-29T12:06:24.942Z,30.99
2022-10-29T12:09:00.477Z,31.02
2022-10-29T12:11:45.696Z,31.01
2022-10-29T12:14:21.628Z,31.01
2022-10-29T12:17:08.618Z,31.01
2022-10-29T12:19:51.743Z,30.99
2022-10-29T12:22:44.010Z,30.99
2022-10-29T12:25:31.546Z,31.01
2022-10-29T12:28:21.779Z,31.02
2022-10-29T12:31:01.295Z,31.02
2022-10-29T12:33:58.796Z,31.04
2022-10-29T12:36:37.648Z,31.00
2022-10-29T12:39:16.773Z,31.02
2022-10-29T12:41:51.449Z,31.01
2022-10-29T12:44:40.037Z,30.99
2022-10-29T12:47:23.334Z,31.03
2022-10-29T12:49:59.484Z,31.01
2022-10-29T12:52:45.991Z,31.04
2022-10-29T12:55:19.387Z,31.02
2022-10-29T12:57:49.708Z,31.03
2022-10-29T13:00:26.140Z,31.04
2022-10-29T13:02:58.242Z,31.06
2022-10-29T13:05:28.865Z,31.04
2022-10-29T13:08:01.841Z,31.04
2022-10-29T13:10:37.728Z,31.06
2022-10-29T13:13:25.825Z,31.00
2022-10-29T13:16:09.869Z,30.97
2022-10-29T13:18:43.054Z,30.99
2022-10-29T13:21:13.460Z,31.09
2022-10-29T13:23:43.877Z,31.12
2022-10-29T13:26:14.237Z,31.09
2022-10-29T13:28:49.630Z,31.08
2022-10-29T13:31:19.852Z,31.07
2022-10-29T13:33:50.088Z,31.06
2022-10-29T13:36:21.723Z,31.08
2022-10-29T13:39:05.733Z,31.08
2022-10-29T13:41:46.150Z,31.03
2022-10-29T13:44:24.924Z,31.12
2022-10-29T13:46:58.115Z,31.06
2022-10-29T13:49:57.869Z,31.06
2022-10-29T13:52:29.170Z,31.03
2022-10-29T13:55:03.636Z,31.07
2022-10-29T13:57:39.439Z,31.02
2022-10-29T14:00:20.699Z,31.02
2022-10-29T14:03:06.423Z,31.01
2022-10-29T14:05:49.750Z,30.95
2022-10-29T14:08:41.068Z,30.99
2022-10-29T14:11:33.294Z,31.01
2022-10-29T14:14:07.104Z,30.99
2022-10-29T14:16:37.449Z,30.96
2022-10-29T14:19:24.134Z,31.10
2022-10-29T14:21:55.218Z,31.08
2022-10-29T14:24:25.445Z,31.11
2022-10-29T14:27:09.972Z,31.06
2022-10-29T14:29:40.895Z,31.09
2022-10-29T14:32:15.168Z,31.05
2022-10-29T14:34:47.437Z,30.99
2022-10-29T14:37:33.097Z,31.15
2022-10-29T14:40:09.631Z,31.22
2022-10-29T14:42:48.877Z,31.17
2022-10-29T14:45:35.165Z,31.22
2022-10-29T14:48:13.018Z,31.21
2022-10-29T14:50:50.127Z,31.19
2022-10-29T14:53:43.025Z,31.24
2022-10-29T14:56:21.260Z,31.18
2022-10-29T14:58:51.749Z,31.20
2022-10-29T15:01:23.158Z,31.24
2022-10-29T15:04:01.235Z,31.19
2022-10-29T15:06:32.586Z,31.18
2022-10-29T15:09:08.813Z,31.23
2022-10-29T15:11:44.675Z,31.24
2022-10-29T15:14:33.127Z,31.19
2022-10-29T15:17:03.884Z,31.21
2022-10-29T15:19:34.188Z,31.25
2022-10-29T15:22:09.928Z,31.22
2022-10-29T15:24:40.650Z,31.17
2022-10-29T15:27:16.071Z,31.19
2022-10-29T15:29:50.491Z,31.23
2022-10-29T15:32:21.280Z,31.21
2022-10-29T15:34:58.342Z,31.22
2022-10-29T15:37:44.632Z,31.24
2022-10-29T15:40:20.514Z,31.19
2022-10-29T15:42:51.638Z,31.17
2022-10-29T15:45:30.765Z,31.14
2022-10-29T15:48:31.575Z,31.20
2022-10-29T15:51:02.116Z,31.13
2022-10-29T15:53:32.623Z,31.21
2022-10-29T15:56:03.063Z,31.16
2022-10-29T15:58:33.427Z,31.18
2022-10-29T16:01:03.779Z,31.14
2022-10-29T16:03:36.939Z,31.16
2022-10-29T16:06:11.260Z,31.18
2022-10-29T16:08:51.228Z,31.19
2022-10-29T16:11:23.100Z,31.21
2022-10-29T16:13:55.506Z,31.20
2022-10-29T16:16:27.791Z,31.14
2022-10-29T16:18:57.994Z,31.11
2022-10-29T16:21:28.727Z,31.16
2022-10-29T16:23:58.979Z,31.11
2022-10-29T16:26:29.473Z,31.09
2022-10-29T16:28:59.758Z,31.18
2022-10-29T16:31:31.960Z,31.16
2022-10-29T16:34:06.170Z,31.13
2022-10-29T16:36:37.213Z,31.07
2022-10-29T16:39:07.731Z,31.15
2022-10-29T16:41:38.170Z,31.12
2022-10-29T16:44:08.566Z,31.07
2022-10-29T16:46:38.641Z,31.14
2022-10-29T16:49:08.699Z,31.07
2022-10-29T16:51:38.740Z,31.12
2022-10-29T16:54:08.819Z,31.19
2022-10-29T16:56:38.901Z,31.16
2022-10-29T16:59:09.016Z,31.10
2022-10-29T17:01:39.033Z,31.12
2022-10-29T17:04:10.346Z,31.16
2022-10-29T17:06:40.575Z,31.12
2022-10-29T17:09:10.804Z,31.07
2022-10-29T17:11:41.018Z,31.06
2022-10-29T17:14:11.351Z,31.08
2022-10-29T17:16:41.639Z,31.10
2022-10-29T17:19:11.844Z,31.04
2022-10-29T17:21:42.068Z,31.07
2022-10-29T17:24:12.382Z,31.03
2022-10-29T17:26:42.602Z,30.97
2022-10-29T17:58:56.170Z,30.29
2022-10-29T18:01:26.722Z,30.28
2022-10-29T18:03:57.610Z,30.30
2022-10-29T18:06:27.866Z,30.34
2022-10-29T18:08:58.154Z,30.35
2022-10-29T18:11:28.653Z,30.42
2022-10-29T18:13:59.775Z,30.46
2022-10-29T18:16:32.257Z,30.51
2022-10-29T18:19:03.631Z,30.53
2022-10-29T18:21:34.247Z,30.58
2022-10-29T18:24:04.494Z,30.60
2022-10-29T18:26:37.065Z,30.66
2022-10-29T18:29:13.320Z,30.69
2022-10-29T18:31:47.082Z,30.66
2022-10-29T18:34:19.150Z,30.71
2022-10-29T18:36:49.713Z,30.71
2022-10-29T18:39:20.101Z,30.75
2022-10-29T18:41:50.324Z,30.75
2022-10-29T18:44:20.514Z,30.73
2022-10-29T18:46:51.495Z,30.73
2022-10-29T18:49:21.850Z,30.71
2022-10-29T18:51:52.216Z,30.72
2022-10-29T18:54:22.546Z,30.70
2022-10-29T18:56:52.788Z,30.73
2022-10-29T18:59:23.737Z,30.75
2022-10-29T19:01:54.123Z,30.73
2022-10-29T19:04:24.740Z,30.73
2022-10-29T19:06:57.255Z,30.71
2022-10-29T19:09:27.810Z,30.71
2022-10-29T19:11:59.533Z,30.71
2022-10-29T19:14:30.366Z,30.67
2022-10-29T19:17:00.404Z,30.68
2022-10-29T19:19:30.588Z,30.66
2022-10-29T19:22:00.769Z,30.70
2022-10-29T19:24:30.966Z,30.62
2022-10-29T19:27:01.169Z,30.63
2022-10-29T19:29:31.367Z,30.64
2022-10-29T19:32:01.566Z,30.66
2022-10-29T19:34:31.814Z,30.66
2022-10-29T19:37:02.102Z,30.65
2022-10-29T19:39:32.368Z,30.64
2022-10-29T19:42:02.606Z,30.63
2022-10-29T19:44:32.800Z,30.61
2022-10-29T19:47:02.932Z,30.63
2022-10-29T19:49:32.964Z,30.63
2022-10-29T19:52:03.087Z,30.62
2022-10-29T19:54:33.132Z,30.61
2022-10-29T19:57:03.284Z,30.58
2022-10-29T19:59:33.513Z,30.60
2022-10-29T20:02:03.614Z,30.59
2022-10-29T20:04:34.001Z,30.57
2022-10-29T20:07:04.065Z,30.58
2022-10-29T20:09:34.143Z,30.56
2022-10-29T20:12:04.346Z,30.53
2022-10-29T20:14:37.735Z,30.56
2022-10-29T20:17:07.945Z,30.56
2022-10-29T20:19:38.156Z,30.58
2022-10-29T20:22:08.381Z,30.55
2022-10-29T20:24:39.205Z,30.54
2022-10-29T20:27:09.383Z,30.53
2022-10-29T20:29:39.602Z,30.53
2022-10-29T20:32:09.774Z,30.52
2022-10-29T20:34:40.077Z,30.50
2022-10-29T20:37:10.301Z,30.49
2022-10-29T20:39:40.560Z,30.50
2022-10-29T20:42:10.917Z,30.49
2022-10-29T20:44:41.124Z,30.50
2022-10-29T20:47:11.304Z,30.48
2022-10-29T20:49:41.482Z,30.49
2022-10-29T20:52:11.966Z,30.50
2022-10-29T20:54:42.154Z,30.49
2022-10-29T20:57:12.414Z,30.49
2022-10-29T20:59:42.750Z,30.49
2022-10-29T21:02:14.311Z,30.48
2022-10-29T21:04:44.658Z,30.46
2022-10-29T21:07:14.939Z,30.47
2022-10-29T21:09:45.167Z,30.45
2022-10-29T21:12:15.353Z,30.45
2022-10-29T21:14:45.563Z,30.43
2022-10-29T21:17:15.888Z,30.45
2022-10-29T21:19:46.123Z,30.46
2022-10-29T21:22:17.148Z,30.46
2022-10-29T21:24:48.310Z,30.43
2022-10-29T21:27:18.789Z,30.42
2022-10-29T21:29:49.002Z,30.41
2022-10-29T21:32:19.869Z,30.40
2022-10-29T21:34:50.139Z,30.41
2022-10-29T21:37:20.406Z,30.40
2022-10-29T21:39:50.604Z,30.37
2022-10-29T21:42:20.830Z,30.38
2022-10-29T21:44:51.024Z,30.40
2022-10-29T21:47:21.240Z,30.36
2022-10-29T21:49:52.041Z,30.35
2022-10-29T21:52:22.369Z,30.34
2022-10-29T21:54:53.779Z,30.35
2022-10-29T21:57:23.925Z,30.34
2022-10-29T21:59:53.972Z,30.32
2022-10-29T22:02:24.123Z,30.30
2022-10-29T22:04:54.339Z,30.32
2022-10-29T22:07:24.569Z,30.32
2022-10-29T22:09:54.592Z,30.33
2022-10-29T22:12:24.849Z,30.31
2022-10-29T22:14:55.289Z,30.31
2022-10-29T22:17:25.591Z,30.28
2022-10-29T22:19:55.839Z,30.29
2022-10-29T22:22:26.663Z,30.25
2022-10-29T22:24:56.855Z,30.28
2022-10-29T22:27:27.320Z,30.27
2022-10-29T22:29:57.513Z,30.28
2022-10-29T22:32:27.884Z,30.29
2022-10-29T22:34:58.225Z,30.29
2022-10-29T22:37:29.728Z,30.28
2022-10-29T22:39:59.922Z,30.26
2022-10-29T22:42:30.164Z,30.25
2022-10-29T22:45:00.360Z,30.23
2022-10-29T22:47:30.644Z,30.24
2022-10-29T22:50:01.632Z,30.22
2022-10-29T22:52:31.998Z,30.22
2022-10-29T22:55:02.288Z,30.23
2022-10-29T22:57:32.498Z,30.19
2022-10-29T23:00:02.724Z,30.21
2022-10-29T23:02:32.932Z,30.22
2022-10-29T23:05:03.202Z,30.20
2022-10-29T23:07:33.557Z,30.22
2022-10-29T23:10:03.728Z,30.21
2022-10-29T23:12:33.911Z,30.19
2022-10-29T23:15:04.132Z,30.20
2022-10-29T23:17:34.393Z,30.19
2022-10-29T23:20:04.647Z,30.18
2022-10-29T23:22:34.849Z,30.18
2022-10-29T23:25:05.036Z,30.19
2022-10-29T23:27:35.560Z,30.17
2022-10-29T23:30:05.913Z,30.15
2022-10-29T23:32:36.107Z,30.16
2022-10-29T23:35:06.408Z,30.13
2022-10-29T23:37:36.618Z,30.15
2022-10-29T23:40:07.121Z,30.14
2022-10-29T23:42:37.411Z,30.14
2022-10-29T23:45:08.080Z,30.15
2022-10-29T23:47:38.283Z,30.13
2022-10-29T23:50:08.835Z,30.13
2022-10-29T23:52:39.063Z,30.15
2022-10-29T23:55:09.727Z,30.13
2022-10-29T23:57:40.181Z,30.15
